sensor_id;sensor_type;location;lat;lon;timestamp;pressure;altitude;pressure_sealevel;temperature;humidity
35202;BME280;20553;47.544;7.586;2022-08-19T00:04:58;97926.88;;;17.56;100.00
35202;BME280;20553;47.544;7.586;2022-08-19T00:10:05;97924.88;;;17.58;100.00
35202;BME280;20553;47.544;7.586;2022-08-19T00:15:18;97919.91;;;17.53;100.00
35202;BME280;20553;47.544;7.586;2022-08-19T00:20:27;97913.94;;;17.50;100.00
35202;BME280;20553;47.544;7.586;2022-08-19T00:25:32;97910.53;;;17.48;100.00
35202;BME280;20553;47.544;7.586;2022-08-19T00:30:36;97912.91;;;17.51;100.00
35202;BME280;20553;47.544;7.586;2022-08-19T00:35:42;97924.31;;;17.54;100.00
35202;BME280;20553;47.544;7.586;2022-08-19T00:40:46;97912.22;;;17.49;100.00
35202;BME280;20553;47.544;7.586;2022-08-19T00:45:52;97921.34;;;17.48;100.00
35202;BME280;20553;47.544;7.586;2022-08-19T00:50:59;97915.09;;;17.37;100.00
35202;BME280;20553;47.544;7.586;2022-08-19T00:56:04;97905.56;;;17.24;100.00
35202;BME280;20553;47.544;7.586;2022-08-19T01:01:10;97908.53;;;17.20;100.00
35202;BME280;20553;47.544;7.586;2022-08-19T01:06:17;97900.03;;;17.06;100.00
35202;BME280;20553;47.544;7.586;2022-08-19T01:11:24;97905.44;;;17.06;100.00
35202;BME280;20553;47.544;7.586;2022-08-19T01:16:31;97903.56;;;17.06;100.00
35202;BME280;20553;47.544;7.586;2022-08-19T01:21:45;97892.59;;;17.08;100.00
35202;BME280;20553;47.544;7.586;2022-08-19T01:26:53;97902.31;;;17.10;100.00
35202;BME280;20553;47.544;7.586;2022-08-19T01:32:00;97894.75;;;17.14;100.00
35202;BME280;20553;47.544;7.586;2022-08-19T01:37:08;97895.59;;;17.14;100.00
35202;BME280;20553;47.544;7.586;2022-08-19T01:42:15;97894.44;;;17.17;100.00
35202;BME280;20553;47.544;7.586;2022-08-19T01:47:19;97907.69;;;17.20;100.00
35202;BME280;20553;47.544;7.586;2022-08-19T01:52:24;97903.72;;;17.24;100.00
35202;BME280;20553;47.544;7.586;2022-08-19T01:57:29;97908.84;;;17.27;100.00
35202;BME280;20553;47.544;7.586;2022-08-19T02:02:34;97914.97;;;17.29;100.00
35202;BME280;20553;47.544;7.586;2022-08-19T02:07:40;97912.81;;;17.33;100.00
35202;BME280;20553;47.544;7.586;2022-08-19T02:12:46;97908.97;;;17.35;100.00
35202;BME280;20553;47.544;7.586;2022-08-19T02:17:52;97916.50;;;17.32;100.00
35202;BME280;20553;47.544;7.586;2022-08-19T02:22:57;97918.94;;;17.25;100.00
35202;BME280;20553;47.544;7.586;2022-08-19T02:28:04;97909.41;;;17.21;100.00
35202;BME280;20553;47.544;7.586;2022-08-19T02:33:08;97898.00;;;17.17;100.00
35202;BME280;20553;47.544;7.586;2022-08-19T02:38:14;97895.59;;;17.14;100.00
35202;BME280;20553;47.544;7.586;2022-08-19T02:43:33;97899.59;;;17.10;100.00
35202;BME280;20553;47.544;7.586;2022-08-19T02:48:40;97910.28;;;17.12;100.00
35202;BME280;20553;47.544;7.586;2022-08-19T02:53:44;97904.59;;;17.05;100.00
35202;BME280;20553;47.544;7.586;2022-08-19T02:58:50;97904.28;;;16.98;100.00
35202;BME280;20553;47.544;7.586;2022-08-19T03:03:59;97905.00;;;17.00;100.00
35202;BME280;20553;47.544;7.586;2022-08-19T03:09:04;97908.41;;;17.02;100.00
35202;BME280;20553;47.544;7.586;2022-08-19T03:14:11;97914.81;;;17.01;100.00
35202;BME280;20553;47.544;7.586;2022-08-19T03:19:17;97918.53;;;17.00;100.00
35202;BME280;20553;47.544;7.586;2022-08-19T03:24:24;97920.50;;;16.98;100.00
35202;BME280;20553;47.544;7.586;2022-08-19T03:29:31;97928.47;;;17.00;100.00
35202;BME280;20553;47.544;7.586;2022-08-19T03:34:45;97925.06;;;16.98;100.00
35202;BME280;20553;47.544;7.586;2022-08-19T03:39:49;97913.84;;;17.02;100.00
35202;BME280;20553;47.544;7.586;2022-08-19T03:44:55;97917.97;;;17.07;100.00
35202;BME280;20553;47.544;7.586;2022-08-19T03:50:01;97917.09;;;17.16;100.00
35202;BME280;20553;47.544;7.586;2022-08-19T03:55:08;97896.59;;;17.13;100.00
35202;BME280;20553;47.544;7.586;2022-08-19T04:00:15;97898.44;;;17.13;100.00
35202;BME280;20553;47.544;7.586;2022-08-19T04:05:21;97928.50;;;17.10;100.00
35202;BME280;20553;47.544;7.586;2022-08-19T04:10:29;97933.78;;;17.11;100.00
35202;BME280;20553;47.544;7.586;2022-08-19T04:15:40;97932.47;;;17.15;100.00
35202;BME280;20553;47.544;7.586;2022-08-19T04:20:47;97946.72;;;17.17;100.00
35202;BME280;20553;47.544;7.586;2022-08-19T04:25:51;97938.75;;;17.16;100.00
35202;BME280;20553;47.544;7.586;2022-08-19T04:30:57;97937.19;;;17.23;100.00
35202;BME280;20553;47.544;7.586;2022-08-19T04:36:02;97937.47;;;17.30;100.00
35202;BME280;20553;47.544;7.586;2022-08-19T04:41:07;97955.28;;;17.32;100.00
35202;BME280;20553;47.544;7.586;2022-08-19T04:46:31;97959.66;;;17.33;100.00
35202;BME280;20553;47.544;7.586;2022-08-19T04:51:54;97950.16;;;17.29;100.00
35202;BME280;20553;47.544;7.586;2022-08-19T04:56:58;97951.84;;;17.20;100.00
35202;BME280;20553;47.544;7.586;2022-08-19T05:02:08;97954.41;;;17.12;100.00
35202;BME280;20553;47.544;7.586;2022-08-19T05:07:13;97962.66;;;17.20;100.00
35202;BME280;20553;47.544;7.586;2022-08-19T05:12:19;97960.97;;;17.19;100.00
35202;BME280;20553;47.544;7.586;2022-08-19T05:17:32;97975.50;;;17.18;100.00
35202;BME280;20553;47.544;7.586;2022-08-19T05:22:43;97971.22;;;17.16;100.00
35202;BME280;20553;47.544;7.586;2022-08-19T05:27:49;97980.34;;;17.15;100.00
35202;BME280;20553;47.544;7.586;2022-08-19T05:32:55;97979.59;;;17.13;100.00
35202;BME280;20553;47.544;7.586;2022-08-19T05:37:59;97995.28;;;17.19;100.00
35202;BME280;20553;47.544;7.586;2022-08-19T05:43:08;98004.13;;;17.21;100.00
35202;BME280;20553;47.544;7.586;2022-08-19T05:48:14;98001.72;;;17.18;100.00
35202;BME280;20553;47.544;7.586;2022-08-19T05:53:27;97997.72;;;17.22;100.00
35202;BME280;20553;47.544;7.586;2022-08-19T05:58:34;98004.28;;;17.29;100.00
35202;BME280;20553;47.544;7.586;2022-08-19T06:03:42;97996.56;;;17.44;100.00
35202;BME280;20553;47.544;7.586;2022-08-19T06:08:46;98003.56;;;17.56;100.00
35202;BME280;20553;47.544;7.586;2022-08-19T06:13:57;98012.69;;;17.65;100.00
35202;BME280;20553;47.544;7.586;2022-08-19T06:19:16;98020.19;;;17.71;100.00
35202;BME280;20553;47.544;7.586;2022-08-19T06:24:24;98025.19;;;17.76;100.00
35202;BME280;20553;47.544;7.586;2022-08-19T06:29:29;98023.34;;;17.86;100.00
35202;BME280;20553;47.544;7.586;2022-08-19T06:34:37;98022.22;;;17.99;100.00
35202;BME280;20553;47.544;7.586;2022-08-19T06:39:44;98022.19;;;18.08;100.00
35202;BME280;20553;47.544;7.586;2022-08-19T06:44:49;98021.41;;;18.26;100.00
35202;BME280;20553;47.544;7.586;2022-08-19T06:49:59;98024.53;;;18.31;100.00
35202;BME280;20553;47.544;7.586;2022-08-19T06:55:08;98026.66;;;18.37;100.00
35202;BME280;20553;47.544;7.586;2022-08-19T07:00:13;98023.00;;;18.56;100.00
35202;BME280;20553;47.544;7.586;2022-08-19T07:05:19;98029.72;;;18.80;100.00
35202;BME280;20553;47.544;7.586;2022-08-19T07:10:24;98024.59;;;19.05;100.00
35202;BME280;20553;47.544;7.586;2022-08-19T07:15:28;98030.06;;;19.41;100.00
35202;BME280;20553;47.544;7.586;2022-08-19T07:20:35;98032.25;;;19.37;100.00
35202;BME280;20553;47.544;7.586;2022-08-19T07:25:41;98052.03;;;19.47;100.00
35202;BME280;20553;47.544;7.586;2022-08-19T07:30:54;98048.47;;;19.47;100.00
35202;BME280;20553;47.544;7.586;2022-08-19T07:36:00;98060.28;;;19.55;100.00
35202;BME280;20553;47.544;7.586;2022-08-19T07:41:05;98066.63;;;19.46;100.00
35202;BME280;20553;47.544;7.586;2022-08-19T07:46:11;98062.75;;;19.49;100.00
35202;BME280;20553;47.544;7.586;2022-08-19T07:51:20;98065.00;;;19.53;100.00
35202;BME280;20553;47.544;7.586;2022-08-19T07:56:39;98064.59;;;19.48;100.00
35202;BME280;20553;47.544;7.586;2022-08-19T08:01:44;98061.28;;;19.54;100.00
35202;BME280;20553;47.544;7.586;2022-08-19T08:06:50;98074.16;;;19.52;100.00
35202;BME280;20553;47.544;7.586;2022-08-19T08:12:16;98085.50;;;19.48;100.00
35202;BME280;20553;47.544;7.586;2022-08-19T08:17:36;98092.00;;;19.55;100.00
35202;BME280;20553;47.544;7.586;2022-08-19T08:22:55;98097.66;;;19.62;100.00
35202;BME280;20553;47.544;7.586;2022-08-19T08:28:17;98097.72;;;19.80;100.00
35202;BME280;20553;47.544;7.586;2022-08-19T08:33:25;98096.63;;;19.90;100.00
35202;BME280;20553;47.544;7.586;2022-08-19T08:38:38;98110.19;;;20.35;100.00
35202;BME280;20553;47.544;7.586;2022-08-19T08:43:48;98101.66;;;20.74;100.00
35202;BME280;20553;47.544;7.586;2022-08-19T08:49:00;98117.88;;;21.34;100.00
35202;BME280;20553;47.544;7.586;2022-08-19T08:54:13;98120.75;;;21.76;100.00
35202;BME280;20553;47.544;7.586;2022-08-19T08:59:25;98124.84;;;22.04;100.00
35202;BME280;20553;47.544;7.586;2022-08-19T09:04:34;98129.63;;;22.11;100.00
35202;BME280;20553;47.544;7.586;2022-08-19T09:09:45;98130.84;;;22.57;100.00
35202;BME280;20553;47.544;7.586;2022-08-19T09:14:55;98131.28;;;23.73;100.00
35202;BME280;20553;47.544;7.586;2022-08-19T09:20:10;98133.94;;;24.51;97.59
35202;BME280;20553;47.544;7.586;2022-08-19T09:25:22;98143.09;;;24.81;84.00
35202;BME280;20553;47.544;7.586;2022-08-19T09:30:34;98153.03;;;25.42;80.41
35202;BME280;20553;47.544;7.586;2022-08-19T09:35:38;98151.63;;;25.46;78.74
35202;BME280;20553;47.544;7.586;2022-08-19T09:41:02;98145.34;;;25.07;79.87
35202;BME280;20553;47.544;7.586;2022-08-19T09:46:11;98151.66;;;24.40;80.20
35202;BME280;20553;47.544;7.586;2022-08-19T09:51:23;98160.66;;;23.71;84.85
35202;BME280;20553;47.544;7.586;2022-08-19T09:56:32;98154.81;;;23.51;87.75
35202;BME280;20553;47.544;7.586;2022-08-19T10:01:36;98156.13;;;23.24;88.22
35202;BME280;20553;47.544;7.586;2022-08-19T10:06:42;98161.34;;;22.69;91.44
35202;BME280;20553;47.544;7.586;2022-08-19T10:11:50;98163.44;;;22.51;96.42
35202;BME280;20553;47.544;7.586;2022-08-19T10:16:57;98170.88;;;21.91;100.00
35202;BME280;20553;47.544;7.586;2022-08-19T10:22:09;98164.41;;;22.00;100.00
35202;BME280;20553;47.544;7.586;2022-08-19T10:27:18;98171.97;;;22.56;96.68
35202;BME280;20553;47.544;7.586;2022-08-19T10:32:23;98157.91;;;22.92;92.30
35202;BME280;20553;47.544;7.586;2022-08-19T10:37:36;98161.72;;;23.30;89.54
35202;BME280;20553;47.544;7.586;2022-08-19T10:43:01;98167.13;;;23.47;86.96
35202;BME280;20553;47.544;7.586;2022-08-19T10:48:05;98154.16;;;23.49;85.17
35202;BME280;20553;47.544;7.586;2022-08-19T10:53:14;98159.97;;;23.38;86.40
35202;BME280;20553;47.544;7.586;2022-08-19T10:58:22;98149.03;;;23.46;84.02
35202;BME280;20553;47.544;7.586;2022-08-19T11:03:28;98149.91;;;23.38;83.56
35202;BME280;20553;47.544;7.586;2022-08-19T11:08:34;98146.13;;;23.47;82.75
35202;BME280;20553;47.544;7.586;2022-08-19T11:13:42;98164.25;;;23.40;82.56
35202;BME280;20553;47.544;7.586;2022-08-19T11:18:51;98155.78;;;23.58;82.42
35202;BME280;20553;47.544;7.586;2022-08-19T11:24:03;98154.47;;;23.77;81.27
35202;BME280;20553;47.544;7.586;2022-08-19T11:29:13;98164.63;;;23.68;81.88
35202;BME280;20553;47.544;7.586;2022-08-19T11:34:22;98169.28;;;23.60;82.01
35202;BME280;20553;47.544;7.586;2022-08-19T11:39:33;98161.78;;;23.54;82.35
35202;BME280;20553;47.544;7.586;2022-08-19T11:44:40;98164.22;;;23.48;82.47
35202;BME280;20553;47.544;7.586;2022-08-19T11:49:45;98166.13;;;23.40;82.28
35202;BME280;20553;47.544;7.586;2022-08-19T11:54:50;98167.22;;;23.62;80.99
35202;BME280;20553;47.544;7.586;2022-08-19T11:59:56;98167.28;;;24.54;76.09
35202;BME280;20553;47.544;7.586;2022-08-19T12:05:00;98170.03;;;25.22;73.65
35202;BME280;20553;47.544;7.586;2022-08-19T12:10:11;98169.44;;;25.72;69.15
35202;BME280;20553;47.544;7.586;2022-08-19T12:15:21;98169.97;;;26.62;64.21
35202;BME280;20553;47.544;7.586;2022-08-19T12:20:26;98154.84;;;27.36;60.09
35202;BME280;20553;47.544;7.586;2022-08-19T12:25:30;98166.03;;;28.84;52.73
35202;BME280;20553;47.544;7.586;2022-08-19T12:30:39;98156.81;;;29.44;50.00
35202;BME280;20553;47.544;7.586;2022-08-19T12:35:45;98163.91;;;29.72;47.59
35202;BME280;20553;47.544;7.586;2022-08-19T12:40:50;98157.63;;;29.51;47.50
35202;BME280;20553;47.544;7.586;2022-08-19T12:46:04;98157.28;;;28.14;52.67
35202;BME280;20553;47.544;7.586;2022-08-19T12:51:15;98147.50;;;26.80;57.49
35202;BME280;20553;47.544;7.586;2022-08-19T12:56:21;98159.44;;;25.19;73.52
35202;BME280;20553;47.544;7.586;2022-08-19T13:01:27;98165.22;;;23.00;89.55
35202;BME280;20553;47.544;7.586;2022-08-19T13:06:36;98167.56;;;21.28;100.00
35202;BME280;20553;47.544;7.586;2022-08-19T13:11:40;98164.41;;;20.98;100.00
35202;BME280;20553;47.544;7.586;2022-08-19T13:16:47;98170.13;;;20.87;100.00
35202;BME280;20553;47.544;7.586;2022-08-19T13:21:52;98163.78;;;20.60;100.00
35202;BME280;20553;47.544;7.586;2022-08-19T13:27:02;98160.94;;;20.44;100.00
35202;BME280;20553;47.544;7.586;2022-08-19T13:32:08;98166.44;;;20.52;100.00
35202;BME280;20553;47.544;7.586;2022-08-19T13:37:32;98163.63;;;20.88;100.00
35202;BME280;20553;47.544;7.586;2022-08-19T13:42:49;98157.41;;;21.39;100.00
35202;BME280;20553;47.544;7.586;2022-08-19T13:47:58;98162.34;;;21.78;100.00
35202;BME280;20553;47.544;7.586;2022-08-19T13:53:03;98151.78;;;21.75;100.00
35202;BME280;20553;47.544;7.586;2022-08-19T13:58:09;98147.38;;;22.15;100.00
35202;BME280;20553;47.544;7.586;2022-08-19T14:03:16;98142.69;;;22.97;100.00
35202;BME280;20553;47.544;7.586;2022-08-19T14:08:21;98149.22;;;23.44;98.69
35202;BME280;20553;47.544;7.586;2022-08-19T14:13:26;98153.06;;;23.90;96.30
35202;BME280;20553;47.544;7.586;2022-08-19T14:18:32;98158.84;;;24.18;97.23
35202;BME280;20553;47.544;7.586;2022-08-19T14:23:36;98171.66;;;24.40;90.19
35202;BME280;20553;47.544;7.586;2022-08-19T14:28:41;98173.94;;;24.37;88.19
35202;BME280;20553;47.544;7.586;2022-08-19T14:33:48;98183.66;;;24.39;85.02
35202;BME280;20553;47.544;7.586;2022-08-19T14:38:53;98189.66;;;23.88;87.07
35202;BME280;20553;47.544;7.586;2022-08-19T14:43:57;98183.94;;;23.27;87.06
35202;BME280;20553;47.544;7.586;2022-08-19T14:49:06;98186.03;;;23.09;92.57
35202;BME280;20553;47.544;7.586;2022-08-19T14:54:11;98181.25;;;23.03;87.28
35202;BME280;20553;47.544;7.586;2022-08-19T14:59:16;98183.22;;;22.36;89.50
35202;BME280;20553;47.544;7.586;2022-08-19T15:04:22;98184.97;;;21.70;92.00
35202;BME280;20553;47.544;7.586;2022-08-19T15:09:27;98183.13;;;21.44;93.51
35202;BME280;20553;47.544;7.586;2022-08-19T15:14:32;98183.22;;;21.18;95.30
35202;BME280;20553;47.544;7.586;2022-08-19T15:19:39;98186.75;;;21.10;96.45
35202;BME280;20553;47.544;7.586;2022-08-19T15:24:43;98179.69;;;20.99;97.82
35202;BME280;20553;47.544;7.586;2022-08-19T15:29:50;98170.31;;;20.94;98.24
35202;BME280;20553;47.544;7.586;2022-08-19T15:35:07;98172.56;;;20.98;99.79
35202;BME280;20553;47.544;7.586;2022-08-19T15:40:12;98182.75;;;20.96;100.00
35202;BME280;20553;47.544;7.586;2022-08-19T15:45:19;98189.88;;;20.89;100.00
35202;BME280;20553;47.544;7.586;2022-08-19T15:50:27;98186.91;;;20.20;100.00
35202;BME280;20553;47.544;7.586;2022-08-19T15:55:40;98189.72;;;19.65;100.00
35202;BME280;20553;47.544;7.586;2022-08-19T16:00:46;98187.69;;;19.49;100.00
35202;BME280;20553;47.544;7.586;2022-08-19T16:06:16;98194.16;;;19.48;100.00
35202;BME280;20553;47.544;7.586;2022-08-19T16:11:32;98191.81;;;19.53;100.00
35202;BME280;20553;47.544;7.586;2022-08-19T16:16:43;98189.19;;;19.61;100.00
35202;BME280;20553;47.544;7.586;2022-08-19T16:21:54;98189.03;;;19.63;100.00
35202;BME280;20553;47.544;7.586;2022-08-19T16:27:00;98188.66;;;19.58;100.00
35202;BME280;20553;47.544;7.586;2022-08-19T16:32:10;98189.09;;;19.81;100.00
35202;BME280;20553;47.544;7.586;2022-08-19T16:37:17;98196.84;;;19.94;100.00
35202;BME280;20553;47.544;7.586;2022-08-19T16:42:24;98186.44;;;20.25;100.00
35202;BME280;20553;47.544;7.586;2022-08-19T16:47:29;98198.66;;;20.39;100.00
35202;BME280;20553;47.544;7.586;2022-08-19T16:52:36;98198.13;;;20.61;100.00
35202;BME280;20553;47.544;7.586;2022-08-19T16:57:41;98201.28;;;20.67;100.00
35202;BME280;20553;47.544;7.586;2022-08-19T17:02:46;98198.44;;;20.58;100.00
35202;BME280;20553;47.544;7.586;2022-08-19T17:07:52;98198.13;;;20.61;100.00
35202;BME280;20553;47.544;7.586;2022-08-19T17:12:56;98208.19;;;20.61;100.00
35202;BME280;20553;47.544;7.586;2022-08-19T17:18:03;98201.94;;;20.51;100.00
35202;BME280;20553;47.544;7.586;2022-08-19T17:23:09;98197.41;;;20.33;100.00
35202;BME280;20553;47.544;7.586;2022-08-19T17:28:20;98207.91;;;20.28;100.00
35202;BME280;20553;47.544;7.586;2022-08-19T17:33:25;98197.72;;;20.12;100.00
35202;BME280;20553;47.544;7.586;2022-08-19T17:38:34;98203.44;;;19.73;100.00
35202;BME280;20553;47.544;7.586;2022-08-19T17:43:40;98194.94;;;19.30;100.00
35202;BME280;20553;47.544;7.586;2022-08-19T17:48:48;98190.63;;;19.00;100.00
35202;BME280;20553;47.544;7.586;2022-08-19T17:53:57;98184.50;;;18.98;100.00
35202;BME280;20553;47.544;7.586;2022-08-19T17:59:03;98178.91;;;18.99;100.00
35202;BME280;20553;47.544;7.586;2022-08-19T18:04:11;98188.03;;;19.08;100.00
35202;BME280;20553;47.544;7.586;2022-08-19T18:09:17;98190.25;;;19.23;100.00
35202;BME280;20553;47.544;7.586;2022-08-19T18:14:26;98195.34;;;19.35;100.00
35202;BME280;20553;47.544;7.586;2022-08-19T18:19:40;98200.81;;;19.53;100.00
35202;BME280;20553;47.544;7.586;2022-08-19T18:24:47;98211.28;;;19.48;100.00
35202;BME280;20553;47.544;7.586;2022-08-19T18:29:53;98218.00;;;19.44;100.00
35202;BME280;20553;47.544;7.586;2022-08-19T18:35:06;98223.84;;;19.22;100.00
35202;BME280;20553;47.544;7.586;2022-08-19T18:40:19;98231.22;;;18.92;100.00
35202;BME280;20553;47.544;7.586;2022-08-19T18:45:42;98245.38;;;18.76;100.00
35202;BME280;20553;47.544;7.586;2022-08-19T18:51:07;98246.53;;;18.54;100.00
35202;BME280;20553;47.544;7.586;2022-08-19T18:56:17;98249.28;;;18.34;100.00
35202;BME280;20553;47.544;7.586;2022-08-19T19:01:28;98256.09;;;18.19;100.00
35202;BME280;20553;47.544;7.586;2022-08-19T19:06:38;98267.09;;;18.07;100.00
35202;BME280;20553;47.544;7.586;2022-08-19T19:11:47;98271.50;;;17.99;100.00
35202;BME280;20553;47.544;7.586;2022-08-19T19:16:52;98264.50;;;17.96;100.00
35202;BME280;20553;47.544;7.586;2022-08-19T19:21:58;98265.50;;;17.95;100.00
35202;BME280;20553;47.544;7.586;2022-08-19T19:27:06;98272.34;;;17.89;100.00
35202;BME280;20553;47.544;7.586;2022-08-19T19:32:19;98284.13;;;17.79;100.00
35202;BME280;20553;47.544;7.586;2022-08-19T19:37:24;98281.94;;;17.72;100.00
35202;BME280;20553;47.544;7.586;2022-08-19T19:42:30;98289.34;;;17.61;100.00
35202;BME280;20553;47.544;7.586;2022-08-19T19:47:35;98294.16;;;17.57;100.00
35202;BME280;20553;47.544;7.586;2022-08-19T19:52:42;98306.97;;;17.55;100.00
35202;BME280;20553;47.544;7.586;2022-08-19T19:57:50;98302.94;;;17.49;100.00
35202;BME280;20553;47.544;7.586;2022-08-19T20:02:56;98307.34;;;17.41;100.00
35202;BME280;20553;47.544;7.586;2022-08-19T20:08:01;98307.75;;;17.36;100.00
35202;BME280;20553;47.544;7.586;2022-08-19T20:13:25;98316.84;;;17.35;100.00
35202;BME280;20553;47.544;7.586;2022-08-19T20:18:29;98319.66;;;17.24;100.00
35202;BME280;20553;47.544;7.586;2022-08-19T20:23:34;98330.75;;;17.20;100.00
35202;BME280;20553;47.544;7.586;2022-08-19T20:28:41;98329.09;;;17.29;100.00
35202;BME280;20553;47.544;7.586;2022-08-19T20:34:01;98335.56;;;17.17;100.00
35202;BME280;20553;47.544;7.586;2022-08-19T20:39:08;98340.13;;;17.16;100.00
35202;BME280;20553;47.544;7.586;2022-08-19T20:44:16;98337.56;;;17.15;100.00
35202;BME280;20553;47.544;7.586;2022-08-19T20:49:21;98331.34;;;17.03;100.00
35202;BME280;20553;47.544;7.586;2022-08-19T20:54:29;98331.75;;;16.98;100.00
35202;BME280;20553;47.544;7.586;2022-08-19T20:59:35;98341.78;;;16.87;100.00
35202;BME280;20553;47.544;7.586;2022-08-19T21:04:40;98345.50;;;16.74;100.00
35202;BME280;20553;47.544;7.586;2022-08-19T21:09:44;98339.25;;;16.74;100.00
35202;BME280;20553;47.544;7.586;2022-08-19T21:14:51;98343.56;;;16.65;100.00
35202;BME280;20553;47.544;7.586;2022-08-19T21:19:55;98339.22;;;16.53;100.00
35202;BME280;20553;47.544;7.586;2022-08-19T21:25:01;98336.50;;;16.53;100.00
35202;BME280;20553;47.544;7.586;2022-08-19T21:30:09;98347.94;;;16.56;100.00
35202;BME280;20553;47.544;7.586;2022-08-19T21:35:13;98347.72;;;16.48;100.00
35202;BME280;20553;47.544;7.586;2022-08-19T21:40:19;98341.59;;;16.35;100.00
35202;BME280;20553;47.544;7.586;2022-08-19T21:45:25;98344.22;;;16.57;100.00
35202;BME280;20553;47.544;7.586;2022-08-19T21:50:30;98354.50;;;16.63;100.00
35202;BME280;20553;47.544;7.586;2022-08-19T21:55:35;98354.06;;;16.58;100.00
35202;BME280;20553;47.544;7.586;2022-08-19T22:00:41;98346.97;;;16.46;100.00
35202;BME280;20553;47.544;7.586;2022-08-19T22:05:47;98343.06;;;16.39;100.00
35202;BME280;20553;47.544;7.586;2022-08-19T22:10:53;98349.06;;;16.42;100.00
35202;BME280;20553;47.544;7.586;2022-08-19T22:16:00;98360.34;;;16.47;100.00
35202;BME280;20553;47.544;7.586;2022-08-19T22:21:06;98368.72;;;16.44;100.00
35202;BME280;20553;47.544;7.586;2022-08-19T22:26:15;98372.56;;;16.42;100.00
35202;BME280;20553;47.544;7.586;2022-08-19T22:31:22;98367.41;;;16.39;100.00
35202;BME280;20553;47.544;7.586;2022-08-19T22:36:26;98359.88;;;16.42;100.00
35202;BME280;20553;47.544;7.586;2022-08-19T22:41:34;98362.59;;;16.42;100.00
35202;BME280;20553;47.544;7.586;2022-08-19T22:46:40;98361.22;;;16.48;100.00
35202;BME280;20553;47.544;7.586;2022-08-19T22:51:45;98360.72;;;16.43;100.00
35202;BME280;20553;47.544;7.586;2022-08-19T22:57:07;98367.09;;;16.53;100.00
35202;BME280;20553;47.544;7.586;2022-08-19T23:02:20;98368.41;;;16.70;100.00
35202;BME280;20553;47.544;7.586;2022-08-19T23:07:25;98362.69;;;16.84;100.00
35202;BME280;20553;47.544;7.586;2022-08-19T23:12:34;98354.69;;;16.83;100.00
35202;BME280;20553;47.544;7.586;2022-08-19T23:17:41;98354.47;;;16.86;100.00
35202;BME280;20553;47.544;7.586;2022-08-19T23:22:47;98351.06;;;16.94;100.00
35202;BME280;20553;47.544;7.586;2022-08-19T23:27:54;98343.38;;;16.89;100.00
35202;BME280;20553;47.544;7.586;2022-08-19T23:33:21;98342.13;;;16.93;100.00
35202;BME280;20553;47.544;7.586;2022-08-19T23:38:29;98340.25;;;16.94;100.00
35202;BME280;20553;47.544;7.586;2022-08-19T23:43:36;98339.19;;;16.85;100.00
35202;BME280;20553;47.544;7.586;2022-08-19T23:48:43;98329.84;;;16.78;100.00
35202;BME280;20553;47.544;7.586;2022-08-19T23:53:48;98331.84;;;16.76;100.00
35202;BME280;20553;47.544;7.586;2022-08-19T23:58:53;98330.13;;;16.75;100.00
